Time;durP1;ratioP1;P1;durP2;ratioP2;P2;SDS_P1;SDS_P2;PMS_P1;PMS_P2;Temp;Humidity;BMP_temperature;BMP_pressure;BME280_temperature;BME280_humidity;BME280_pressure;Samples;Min_cycle;Max_cycle;Signal;HPM_P1;HPM_P2
2021/01/25 00:01:29;;;;;;;28.40;25.20;;;1.20;99.90;;;;;;5110900;27;20866;-72
2021/01/25 00:03:55;;;;;;;30.63;26.70;;;1.30;99.90;;;;;;5105614;27;20963;-73
2021/01/25 00:06:22;;;;;;;30.13;25.50;;;1.30;99.90;;;;;;5104671;27;20459;-72
2021/01/25 00:08:51;;;;;;;26.67;24.27;;;1.30;99.90;;;;;;5100045;28;20462;-73
2021/01/25 00:11:17;;;;;;;35.10;26.50;;;1.30;99.90;;;;;;5106784;27;20556;-72
2021/01/25 00:13:47;;;;;;;27.60;24.80;;;1.30;99.90;;;;;;5104737;27;20488;-72
2021/01/25 00:16:14;;;;;;;31.23;27.33;;;1.40;99.90;;;;;;5114916;27;20466;-72
2021/01/25 00:18:40;;;;;;;29.63;26.53;;;1.30;99.90;;;;;;5098898;28;20954;-72
2021/01/25 00:21:06;;;;;;;28.97;25.93;;;1.30;99.90;;;;;;5104041;28;20458;-72
2021/01/25 00:23:32;;;;;;;28.60;26.00;;;1.30;99.90;;;;;;5099207;28;20503;-72
2021/01/25 00:26:00;;;;;;;36.70;26.47;;;1.30;99.90;;;;;;5099149;27;20457;-70
2021/01/25 00:28:26;;;;;;;28.87;26.17;;;1.30;99.90;;;;;;5109014;28;20448;-70
2021/01/25 00:30:54;;;;;;;27.93;25.30;;;1.30;99.90;;;;;;5102056;28;21002;-72
2021/01/25 00:33:20;;;;;;;40.47;25.57;;;1.30;99.90;;;;;;5098178;27;20477;-72
2021/01/25 00:35:46;;;;;;;51.50;26.20;;;1.30;99.90;;;;;;5102194;28;20448;-72
2021/01/25 00:38:15;;;;;;;29.97;27.03;;;1.30;99.90;;;;;;5102763;27;20663;-72
2021/01/25 00:40:42;;;;;;;28.57;25.80;;;1.30;99.90;;;;;;5108846;28;20476;-72
2021/01/25 00:43:10;;;;;;;30.23;27.03;;;1.20;99.90;;;;;;5106778;28;20546;-71
2021/01/25 00:45:36;;;;;;;34.63;24.57;;;1.20;99.90;;;;;;5107941;28;20463;-72
2021/01/25 00:48:03;;;;;;;42.83;25.67;;;1.20;99.90;;;;;;5103226;28;20456;-73
2021/01/25 00:50:29;;;;;;;29.80;25.10;;;1.10;99.90;;;;;;5104873;28;20461;-72
2021/01/25 00:52:56;;;;;;;34.13;26.27;;;1.20;99.90;;;;;;5104094;28;20497;-72
2021/01/25 00:55:23;;;;;;;35.13;24.77;;;1.10;99.90;;;;;;5102353;27;20481;-72
2021/01/25 00:57:49;;;;;;;34.33;24.87;;;1.10;99.90;;;;;;5115623;28;20881;-70
2021/01/25 01:00:18;;;;;;;26.93;24.37;;;1.10;99.90;;;;;;5106324;28;20464;-70
2021/01/25 01:02:44;;;;;;;34.40;25.93;;;1.10;99.90;;;;;;5104771;28;20464;-69
2021/01/25 01:05:11;;;;;;;32.53;24.97;;;1.20;99.90;;;;;;5105415;28;20464;-70
2021/01/25 01:07:37;;;;;;;29.70;24.97;;;1.10;99.90;;;;;;5104023;28;20505;-69
2021/01/25 01:10:06;;;;;;;27.97;25.00;;;1.10;99.90;;;;;;5109722;28;20535;-70
2021/01/25 01:12:32;;;;;;;34.17;25.67;;;1.10;99.90;;;;;;5105110;28;20812;-70
2021/01/25 01:14:59;;;;;;;37.77;25.50;;;1.10;99.90;;;;;;5105403;28;20951;-71
2021/01/25 01:17:26;;;;;;;31.93;25.57;;;1.10;99.90;;;;;;5108113;28;20468;-70
2021/01/25 01:19:53;;;;;;;29.90;24.60;;;1.10;99.90;;;;;;5103785;28;20492;-69
2021/01/25 01:22:19;;;;;;;33.80;25.07;;;1.10;99.90;;;;;;5103986;28;20460;-70
2021/01/25 01:24:45;;;;;;;33.60;26.53;;;1.10;99.90;;;;;;5114070;27;20460;-70
2021/01/25 01:27:15;;;;;;;27.47;24.73;;;1.10;99.90;;;;;;5111583;27;20930;-71
2021/01/25 01:29:41;;;;;;;34.03;26.13;;;1.10;99.90;;;;;;5114981;27;20483;-70
2021/01/25 01:32:08;;;;;;;29.03;26.40;;;1.10;99.90;;;;;;5112559;27;20855;-70
2021/01/25 01:34:37;;;;;;;28.10;25.13;;;1.00;99.90;;;;;;5113318;27;20491;-70
2021/01/25 01:37:03;;;;;;;39.20;26.13;;;1.00;99.90;;;;;;5108984;27;20477;-70
2021/01/25 01:39:29;;;;;;;35.97;25.00;;;1.00;99.90;;;;;;5108606;27;20855;-69
2021/01/25 01:41:56;;;;;;;39.43;25.67;;;1.00;99.90;;;;;;5101382;27;20464;-70
2021/01/25 01:44:22;;;;;;;50.90;25.87;;;0.90;99.90;;;;;;5108222;27;20460;-70
2021/01/25 01:46:49;;;;;;;29.43;25.20;;;0.90;99.90;;;;;;5108098;27;20966;-71
2021/01/25 01:49:16;;;;;;;29.33;23.77;;;0.90;99.90;;;;;;5106609;28;20824;-70
2021/01/25 01:51:43;;;;;;;27.40;24.47;;;1.00;99.90;;;;;;5106068;27;20488;-70
2021/01/25 01:54:10;;;;;;;26.40;23.87;;;1.00;99.90;;;;;;5107998;27;20487;-70
2021/01/25 01:56:37;;;;;;;47.03;25.47;;;1.00;99.90;;;;;;5112816;27;21030;-70
2021/01/25 01:59:04;;;;;;;28.40;25.40;;;1.00;99.90;;;;;;5115131;27;20748;-70
2021/01/25 02:01:31;;;;;;;34.43;25.80;;;1.00;99.90;;;;;;5101818;28;20460;-70
2021/01/25 02:03:58;;;;;;;37.70;24.60;;;1.00;99.90;;;;;;5117478;27;20810;-70
2021/01/25 02:06:27;;;;;;;28.17;25.37;;;1.00;99.90;;;;;;5107961;27;20468;-69
2021/01/25 02:08:58;;;;;;;29.20;23.80;;;1.00;99.90;;;;;;5112397;27;20456;-69
2021/01/25 02:11:28;;;;;;;71.90;25.37;;;1.00;99.90;;;;;;5107252;27;20467;-70
2021/01/25 02:13:56;;;;;;;29.60;24.97;;;1.00;99.90;;;;;;5108844;27;20512;-72
2021/01/25 02:16:25;;;;;;;28.73;25.80;;;1.00;99.90;;;;;;5109651;27;20529;-74
2021/01/25 02:18:52;;;;;;;26.70;23.90;;;1.00;99.90;;;;;;5103913;27;20826;-72
2021/01/25 02:21:21;;;;;;;38.73;24.97;;;1.00;99.90;;;;;;5105555;27;20455;-73
2021/01/25 02:24:03;;;;;;;29.17;26.10;;;1.00;99.90;;;;;;5103174;28;20477;-70
2021/01/25 02:26:42;;;;;;;29.63;26.77;;;1.00;99.90;;;;;;5104363;28;20487;-70
2021/01/25 02:29:10;;;;;;;27.83;25.13;;;1.00;99.90;;;;;;5109824;27;20482;-69
2021/01/25 02:31:38;;;;;;;34.63;25.13;;;1.00;99.90;;;;;;5107572;27;20467;-71
2021/01/25 02:34:06;;;;;;;28.20;25.30;;;1.00;99.90;;;;;;5105560;27;20500;-71
2021/01/25 02:36:34;;;;;;;29.07;24.60;;;1.10;99.90;;;;;;5113101;27;20950;-71
2021/01/25 02:39:01;;;;;;;52.77;26.17;;;1.10;99.90;;;;;;5105160;27;20469;-70
2021/01/25 02:41:29;;;;;;;33.70;26.10;;;1.00;99.90;;;;;;5105398;27;20492;-70
2021/01/25 02:43:57;;;;;;;29.90;26.33;;;1.00;99.90;;;;;;5110521;27;20465;-70
2021/01/25 02:46:26;;;;;;;36.97;23.93;;;1.00;99.90;;;;;;5107734;27;20462;-69
2021/01/25 02:48:53;;;;;;;29.90;25.10;;;0.90;99.90;;;;;;5112434;27;20467;-70
2021/01/25 02:51:19;;;;;;;39.10;25.93;;;0.90;99.90;;;;;;5103857;27;20483;-70
2021/01/25 02:53:47;;;;;;;42.33;27.33;;;0.90;99.90;;;;;;5112202;27;20477;-70
2021/01/25 02:56:14;;;;;;;28.80;25.70;;;0.90;99.90;;;;;;5110940;27;20457;-71
2021/01/25 02:58:42;;;;;;;31.13;26.97;;;0.90;99.90;;;;;;5098076;28;20462;-69
2021/01/25 03:01:09;;;;;;;27.90;25.20;;;0.90;99.90;;;;;;5110132;27;20460;-71
2021/01/25 03:03:39;;;;;;;29.60;26.50;;;0.80;99.90;;;;;;5106406;28;20470;-70
2021/01/25 03:06:07;;;;;;;33.07;27.07;;;0.90;99.90;;;;;;5105833;27;20521;-69
2021/01/25 03:08:33;;;;;;;27.57;24.77;;;0.90;99.90;;;;;;5105378;27;20464;-70
2021/01/25 03:11:00;;;;;;;37.27;25.80;;;0.90;99.90;;;;;;5110151;27;20457;-71
2021/01/25 03:13:27;;;;;;;31.10;27.33;;;0.90;99.90;;;;;;5102937;27;20526;-70
2021/01/25 03:15:56;;;;;;;33.13;25.93;;;0.90;99.90;;;;;;5114269;27;20465;-70
2021/01/25 03:18:23;;;;;;;30.63;27.50;;;0.90;99.90;;;;;;5107751;28;20476;-71
2021/01/25 03:20:52;;;;;;;29.73;24.60;;;0.90;99.90;;;;;;5108094;27;20460;-70
2021/01/25 03:23:18;;;;;;;27.63;25.17;;;0.90;99.90;;;;;;5105379;27;20465;-71
2021/01/25 03:25:47;;;;;;;27.20;24.70;;;1.00;99.90;;;;;;5115789;27;20483;-71
2021/01/25 03:28:14;;;;;;;30.13;27.23;;;1.00;99.90;;;;;;5111975;27;20457;-71
2021/01/25 03:30:40;;;;;;;43.83;27.73;;;1.00;99.90;;;;;;5106596;27;20517;-71
2021/01/25 03:33:07;;;;;;;31.33;28.00;;;1.00;99.90;;;;;;5099199;27;20495;-71
2021/01/25 03:35:33;;;;;;;30.40;27.40;;;1.00;99.90;;;;;;5104273;27;20460;-70
2021/01/25 03:38:02;;;;;;;31.30;26.33;;;1.00;99.90;;;;;;5108252;27;21001;-71
2021/01/25 03:40:28;;;;;;;30.07;26.90;;;1.00;99.90;;;;;;5105038;27;20460;-69
2021/01/25 03:42:55;;;;;;;30.20;27.27;;;1.10;99.90;;;;;;5102781;27;20848;-71
2021/01/25 03:45:22;;;;;;;34.60;26.67;;;1.10;99.90;;;;;;5106728;27;20812;-70
2021/01/25 03:47:48;;;;;;;30.83;25.43;;;1.10;99.90;;;;;;5102758;27;20555;-70
2021/01/25 03:50:15;;;;;;;29.73;26.60;;;1.10;99.90;;;;;;5108223;27;20470;-70
2021/01/25 03:52:41;;;;;;;28.43;25.73;;;1.10;99.90;;;;;;5110016;27;20476;-71
2021/01/25 03:55:09;;;;;;;30.00;26.97;;;1.10;99.90;;;;;;5097146;28;20460;-70
2021/01/25 03:57:36;;;;;;;36.80;27.70;;;1.10;99.90;;;;;;5103427;27;20464;-70
2021/01/25 04:00:04;;;;;;;30.00;27.00;;;1.10;99.90;;;;;;5110713;27;20856;-70
2021/01/25 04:02:31;;;;;;;29.00;26.00;;;1.10;99.90;;;;;;5101223;28;20461;-71
2021/01/25 04:04:58;;;;;;;33.30;27.73;;;1.10;99.90;;;;;;5099548;28;20462;-70
2021/01/25 04:07:24;;;;;;;28.17;25.20;;;1.10;99.90;;;;;;5099862;28;20469;-70
2021/01/25 04:09:50;;;;;;;28.33;25.60;;;1.10;99.90;;;;;;5101608;28;20736;-71
2021/01/25 04:12:18;;;;;;;29.27;26.47;;;1.10;99.90;;;;;;5106506;27;20509;-71
2021/01/25 04:14:44;;;;;;;33.67;26.50;;;1.20;99.90;;;;;;5109270;27;20480;-71
2021/01/25 04:17:12;;;;;;;33.43;27.00;;;1.20;99.90;;;;;;5106340;27;20463;-71
2021/01/25 04:19:38;;;;;;;31.43;28.33;;;1.20;99.90;;;;;;5101735;27;20518;-71
2021/01/25 04:22:04;;;;;;;31.80;27.83;;;1.10;99.90;;;;;;5107781;27;20472;-71
2021/01/25 04:24:30;;;;;;;97.27;27.40;;;1.10;99.90;;;;;;5114405;27;20464;-71
2021/01/25 04:26:57;;;;;;;30.03;26.93;;;1.10;99.90;;;;;;5112344;27;20459;-71
2021/01/25 04:29:24;;;;;;;30.17;27.27;;;1.10;99.90;;;;;;5108271;27;20481;-71
2021/01/25 04:31:50;;;;;;;31.27;28.27;;;1.10;99.90;;;;;;5107757;27;20981;-71
2021/01/25 04:34:17;;;;;;;31.20;28.17;;;1.10;99.90;;;;;;5109683;27;20616;-70
2021/01/25 04:36:43;;;;;;;30.67;27.57;;;1.10;99.90;;;;;;5107000;27;20471;-72
2021/01/25 04:39:09;;;;;;;39.60;28.30;;;1.10;99.90;;;;;;5104407;27;20460;-70
2021/01/25 04:41:36;;;;;;;32.07;28.70;;;1.10;99.90;;;;;;5098975;27;20525;-70
2021/01/25 04:44:02;;;;;;;33.50;28.80;;;1.10;99.90;;;;;;5109001;27;20950;-71
2021/01/25 04:46:32;;;;;;;32.10;28.90;;;1.00;99.90;;;;;;5105697;28;20461;-71
2021/01/25 04:48:59;;;;;;;31.00;28.23;;;1.10;99.90;;;;;;5108239;28;20452;-70
2021/01/25 04:51:27;;;;;;;33.40;30.00;;;1.10;99.90;;;;;;5110776;27;20830;-71
2021/01/25 04:53:55;;;;;;;31.47;28.27;;;1.10;99.90;;;;;;5098958;28;20480;-71
2021/01/25 04:56:24;;;;;;;32.40;29.17;;;1.10;99.90;;;;;;5106192;28;20463;-70
2021/01/25 04:58:51;;;;;;;31.30;28.10;;;1.20;99.90;;;;;;5109924;28;20458;-70
2021/01/25 05:01:18;;;;;;;34.50;29.37;;;1.10;99.90;;;;;;5110040;27;20551;-71
2021/01/25 05:03:46;;;;;;;34.10;30.50;;;1.20;99.90;;;;;;5099924;28;20472;-71
2021/01/25 05:06:13;;;;;;;35.67;29.70;;;1.20;99.90;;;;;;5101826;28;20454;-71
2021/01/25 05:08:39;;;;;;;32.27;28.87;;;1.30;99.90;;;;;;5108789;28;20457;-70
2021/01/25 05:11:14;;;;;;;33.07;29.80;;;1.30;99.90;;;;;;5101132;28;20486;-71
2021/01/25 05:13:41;;;;;;;33.03;29.53;;;1.30;99.90;;;;;;5107290;28;20485;-70
2021/01/25 05:16:16;;;;;;;36.87;30.50;;;1.10;99.90;;;;;;5119589;27;20517;-71
2021/01/25 05:18:43;;;;;;;32.57;29.23;;;1.10;99.90;;;;;;5103511;28;20488;-70
2021/01/25 05:21:10;;;;;;;34.43;30.90;;;1.10;99.90;;;;;;5105110;28;20943;-70
2021/01/25 05:23:38;;;;;;;33.40;30.07;;;1.10;99.90;;;;;;5106120;28;20452;-71
2021/01/25 05:26:06;;;;;;;32.60;29.43;;;1.10;99.90;;;;;;5113667;27;21022;-71
2021/01/25 05:28:39;;;;;;;32.70;29.30;;;1.10;99.90;;;;;;5115761;27;20859;-71
2021/01/25 05:31:18;;;;;;;34.30;30.30;;;1.10;99.90;;;;;;5108034;28;20454;-72
2021/01/25 05:33:46;;;;;;;38.30;32.17;;;1.00;99.90;;;;;;5115589;27;21018;-72
2021/01/25 05:36:19;;;;;;;36.10;31.23;;;1.00;99.90;;;;;;5106461;28;20459;-71
2021/01/25 05:38:48;;;;;;;33.93;29.80;;;0.90;99.90;;;;;;5104042;28;20539;-74
2021/01/25 05:41:17;;;;;;;36.90;31.50;;;0.90;99.90;;;;;;5107456;28;20466;-71
2021/01/25 05:43:44;;;;;;;33.90;29.70;;;1.00;99.90;;;;;;5109255;28;20458;-74
2021/01/25 05:46:13;;;;;;;37.60;31.50;;;1.10;99.90;;;;;;5105221;28;20459;-71
2021/01/25 05:48:39;;;;;;;35.70;31.20;;;1.10;99.90;;;;;;5105785;28;20986;-71
2021/01/25 05:51:14;;;;;;;35.47;31.30;;;1.20;99.90;;;;;;5106123;28;20472;-70
2021/01/25 05:53:43;;;;;;;38.20;30.60;;;1.30;99.90;;;;;;5117682;27;20576;-70
2021/01/25 05:56:10;;;;;;;35.50;31.23;;;1.30;99.90;;;;;;5116382;27;20867;-71
2021/01/25 05:58:38;;;;;;;44.93;31.30;;;1.20;99.90;;;;;;5114618;27;20815;-71
2021/01/25 06:01:05;;;;;;;34.90;29.00;;;1.20;99.90;;;;;;5110410;27;20480;-70
2021/01/25 06:03:36;;;;;;;34.70;31.10;;;1.30;99.90;;;;;;5101630;28;20509;-71
2021/01/25 06:06:07;;;;;;;35.23;31.40;;;1.30;99.90;;;;;;5104506;28;20456;-71
2021/01/25 06:08:50;;;;;;;33.87;30.27;;;1.30;99.90;;;;;;5105174;27;20456;-70
2021/01/25 06:11:20;;;;;;;36.10;32.30;;;1.30;99.90;;;;;;5105114;28;20529;-71
2021/01/25 06:13:54;;;;;;;34.77;30.90;;;1.30;99.90;;;;;;5110480;27;21156;-71
2021/01/25 06:16:23;;;;;;;35.77;32.17;;;1.30;99.90;;;;;;5118904;27;20454;-71
2021/01/25 06:18:51;;;;;;;41.20;32.53;;;1.30;99.90;;;;;;5106846;27;20460;-72
2021/01/25 06:21:24;;;;;;;36.53;32.53;;;1.20;99.90;;;;;;5105862;27;20455;-71
2021/01/25 06:23:53;;;;;;;35.27;31.67;;;1.20;99.90;;;;;;5112870;27;20462;-70
2021/01/25 06:26:21;;;;;;;45.83;33.03;;;1.10;99.90;;;;;;5106972;27;20520;-71
2021/01/25 06:28:49;;;;;;;38.00;33.47;;;1.20;99.90;;;;;;5107378;27;20467;-72
2021/01/25 06:31:18;;;;;;;36.43;32.77;;;1.20;99.90;;;;;;5107430;27;20510;-71
2021/01/25 06:33:47;;;;;;;38.63;33.10;;;1.20;99.90;;;;;;5105339;27;20492;-71
2021/01/25 06:36:16;;;;;;;41.03;32.70;;;1.20;99.90;;;;;;5103850;27;20450;-72
2021/01/25 06:38:44;;;;;;;36.30;32.50;;;1.20;99.90;;;;;;5106499;27;20460;-72
2021/01/25 06:41:12;;;;;;;36.67;32.73;;;1.20;99.90;;;;;;5112232;27;20464;-72
2021/01/25 06:43:41;;;;;;;39.90;33.47;;;1.20;99.90;;;;;;5106487;27;20829;-71
2021/01/25 06:46:08;;;;;;;39.60;33.40;;;1.20;99.90;;;;;;5101327;27;20458;-71
2021/01/25 06:48:36;;;;;;;36.77;32.37;;;1.30;99.90;;;;;;5105569;27;20473;-72
2021/01/25 06:51:06;;;;;;;37.70;33.90;;;1.20;99.90;;;;;;5104057;28;20481;-72
2021/01/25 06:53:36;;;;;;;43.40;34.10;;;1.20;99.90;;;;;;5099799;28;20486;-71
2021/01/25 06:56:05;;;;;;;38.00;34.20;;;1.10;99.90;;;;;;5106765;28;20453;-72
2021/01/25 06:58:34;;;;;;;41.23;34.40;;;1.10;99.90;;;;;;5109856;28;20461;-72
2021/01/25 07:01:05;;;;;;;42.53;32.70;;;1.10;99.90;;;;;;5098937;28;20520;-72
2021/01/25 07:03:45;;;;;;;48.03;32.67;;;1.10;99.90;;;;;;5098870;28;20452;-71
2021/01/25 07:06:15;;;;;;;37.20;33.03;;;1.10;99.90;;;;;;5093628;28;20678;-71
2021/01/25 07:08:52;;;;;;;41.57;35.10;;;1.20;99.90;;;;;;5112216;27;20485;-72
2021/01/25 07:11:20;;;;;;;40.50;34.40;;;1.10;99.90;;;;;;5111293;27;20819;-72
2021/01/25 07:13:48;;;;;;;43.73;34.77;;;1.00;99.90;;;;;;5105315;27;20517;-72
2021/01/25 07:16:16;;;;;;;40.83;34.00;;;1.10;99.90;;;;;;5102110;27;20579;-71
2021/01/25 07:18:43;;;;;;;39.10;35.03;;;1.00;99.90;;;;;;5101193;28;20488;-72
2021/01/25 07:21:13;;;;;;;45.07;36.30;;;1.00;99.90;;;;;;5106052;28;20456;-72
2021/01/25 07:23:41;;;;;;;43.47;34.87;;;1.00;99.90;;;;;;5105291;27;20836;-72
2021/01/25 07:26:09;;;;;;;40.37;34.30;;;0.80;99.90;;;;;;5101512;27;20508;-72
2021/01/25 07:28:36;;;;;;;55.30;38.07;;;0.90;99.90;;;;;;5104921;27;20479;-71
2021/01/25 07:31:05;;;;;;;48.07;35.00;;;1.00;99.90;;;;;;5099548;27;20476;-72
2021/01/25 07:33:32;;;;;;;49.77;37.27;;;1.00;99.90;;;;;;5106077;27;20520;-71
2021/01/25 07:35:59;;;;;;;47.67;36.13;;;1.00;99.90;;;;;;5104460;27;20464;-72
2021/01/25 07:38:28;;;;;;;55.03;37.67;;;1.00;99.90;;;;;;5104199;28;20474;-71
2021/01/25 07:40:57;;;;;;;55.93;37.50;;;1.00;99.90;;;;;;5103932;27;20488;-71
2021/01/25 07:43:25;;;;;;;56.47;37.50;;;0.90;99.90;;;;;;5100683;27;20991;-72
2021/01/25 07:45:54;;;;;;;68.60;39.50;;;0.90;99.90;;;;;;5094910;28;20544;-71
2021/01/25 07:48:21;;;;;;;71.90;38.97;;;0.90;99.90;;;;;;5103221;28;20528;-71
2021/01/25 07:50:54;;;;;;;61.53;38.50;;;0.90;99.90;;;;;;5100982;28;20503;-71
2021/01/25 07:53:22;;;;;;;52.60;36.63;;;0.90;99.90;;;;;;5099497;28;20531;-71
2021/01/25 07:55:49;;;;;;;59.10;38.60;;;0.90;99.90;;;;;;5103847;28;20813;-71
2021/01/25 07:58:15;;;;;;;60.60;38.43;;;0.90;99.90;;;;;;5096011;28;20888;-71
2021/01/25 08:00:42;;;;;;;51.90;38.87;;;1.00;99.90;;;;;;5098213;28;20462;-71
2021/01/25 08:03:15;;;;;;;60.43;40.67;;;1.00;99.90;;;;;;5102040;28;20457;-72
2021/01/25 08:05:43;;;;;;;54.57;38.60;;;1.00;99.90;;;;;;5103772;28;20457;-71
2021/01/25 08:08:12;;;;;;;52.23;38.47;;;1.10;99.90;;;;;;5100474;28;20457;-71
2021/01/25 08:10:40;;;;;;;57.57;38.67;;;1.10;99.90;;;;;;5096858;28;20469;-71
2021/01/25 08:13:19;;;;;;;53.03;37.77;;;1.10;99.90;;;;;;5103188;28;20467;-71
2021/01/25 08:15:59;;;;;;;50.23;39.30;;;1.10;99.90;;;;;;5100733;28;20446;-71
2021/01/25 08:18:33;;;;;;;52.63;39.90;;;1.10;99.90;;;;;;5098708;28;20462;-71
2021/01/25 08:21:02;;;;;;;49.33;37.67;;;1.10;99.90;;;;;;5098156;28;20824;-71
2021/01/25 08:23:32;;;;;;;56.47;38.63;;;1.00;99.90;;;;;;5099367;28;20472;-71
2021/01/25 08:26:03;;;;;;;52.60;38.43;;;1.10;99.90;;;;;;5098240;28;20482;-71
2021/01/25 08:28:34;;;;;;;50.33;39.07;;;1.00;99.90;;;;;;5098110;28;20456;-70
2021/01/25 08:31:11;;;;;;;53.47;38.37;;;1.10;99.90;;;;;;5098730;28;20899;-71
2021/01/25 08:33:40;;;;;;;52.70;38.60;;;1.00;99.90;;;;;;5096486;28;20488;-71
2021/01/25 08:36:09;;;;;;;62.23;38.67;;;0.90;99.90;;;;;;5094253;28;20886;-70
2021/01/25 08:38:37;;;;;;;50.70;38.70;;;1.00;99.90;;;;;;5092222;28;20462;-70
2021/01/25 08:41:17;;;;;;;56.10;38.63;;;1.00;99.90;;;;;;5094757;28;20454;-71
2021/01/25 08:43:53;;;;;;;50.90;38.73;;;0.90;99.90;;;;;;5093914;28;20463;-71
2021/01/25 08:46:26;;;;;;;57.10;39.27;;;1.00;99.90;;;;;;5101642;28;20457;-70
2021/01/25 08:48:52;;;;;;;58.73;40.70;;;1.10;99.90;;;;;;5093040;28;20457;-71
2021/01/25 08:51:28;;;;;;;58.10;40.63;;;1.10;99.90;;;;;;5085535;28;20484;-71
2021/01/25 08:54:01;;;;;;;51.27;37.90;;;1.10;99.90;;;;;;5087794;28;20494;-70
2021/01/25 08:56:36;;;;;;;53.93;38.67;;;1.30;99.90;;;;;;5097321;28;20508;-71
2021/01/25 08:59:10;;;;;;;49.33;38.47;;;1.20;99.90;;;;;;5091068;28;20456;-71
2021/01/25 09:01:40;;;;;;;51.73;39.20;;;1.20;99.90;;;;;;5098740;28;20535;-71
2021/01/25 09:04:06;;;;;;;47.10;38.97;;;1.20;99.90;;;;;;5098103;28;20460;-70
2021/01/25 09:06:34;;;;;;;53.53;40.07;;;1.30;99.90;;;;;;5098691;28;20482;-70
2021/01/25 09:09:02;;;;;;;56.20;40.90;;;1.30;99.90;;;;;;5090914;28;20902;-70
2021/01/25 09:11:29;;;;;;;53.50;37.93;;;1.30;99.90;;;;;;5100434;28;20517;-70
2021/01/25 09:13:55;;;;;;;56.23;39.83;;;1.20;99.90;;;;;;5098782;28;20897;-71
2021/01/25 09:16:22;;;;;;;60.87;43.53;;;1.20;99.90;;;;;;5090808;28;20469;-71
2021/01/25 09:18:49;;;;;;;65.90;41.47;;;1.30;99.90;;;;;;5099071;28;20468;-71
2021/01/25 09:21:15;;;;;;;53.70;40.43;;;1.40;99.90;;;;;;5098284;28;20979;-71
2021/01/25 09:23:42;;;;;;;63.77;40.10;;;1.40;99.90;;;;;;5101461;28;20468;-71
2021/01/25 09:26:08;;;;;;;66.03;42.30;;;1.40;99.90;;;;;;5097489;28;20475;-71
2021/01/25 09:28:35;;;;;;;57.23;41.33;;;1.50;99.90;;;;;;5096309;28;20469;-71
2021/01/25 09:31:01;;;;;;;63.40;41.80;;;1.50;99.90;;;;;;5093669;28;20488;-71
2021/01/25 09:33:28;;;;;;;53.47;40.10;;;1.50;99.90;;;;;;5092915;28;20480;-71
2021/01/25 09:35:55;;;;;;;61.57;40.43;;;1.50;99.90;;;;;;5092159;28;20569;-71
2021/01/25 09:38:22;;;;;;;49.43;39.70;;;1.50;99.90;;;;;;5094736;28;20496;-71
2021/01/25 09:40:49;;;;;;;55.37;40.50;;;1.60;99.90;;;;;;5101723;28;20956;-72
2021/01/25 09:43:16;;;;;;;45.00;38.27;;;1.50;99.90;;;;;;5097188;28;20825;-71
2021/01/25 09:45:42;;;;;;;50.30;40.60;;;1.50;99.90;;;;;;5100932;27;20495;-71
2021/01/25 09:48:08;;;;;;;57.70;41.27;;;1.50;99.90;;;;;;5093808;28;20462;-71
2021/01/25 09:50:35;;;;;;;55.13;41.30;;;1.60;99.90;;;;;;5101990;28;20480;-71
2021/01/25 09:53:03;;;;;;;55.90;40.47;;;1.60;99.90;;;;;;5101846;28;20477;-71
2021/01/25 09:55:29;;;;;;;51.20;39.70;;;1.40;99.90;;;;;;5100384;28;20568;-71
2021/01/25 09:57:56;;;;;;;56.67;45.20;;;1.30;99.90;;;;;;5097437;28;20449;-71
2021/01/25 10:00:24;;;;;;;62.27;42.97;;;1.30;99.90;;;;;;5099303;28;21002;-71
2021/01/25 10:02:50;;;;;;;55.27;41.33;;;1.40;99.90;;;;;;5101311;27;20475;-71
2021/01/25 10:05:16;;;;;;;55.13;41.97;;;1.40;99.90;;;;;;5099204;27;20989;-71
2021/01/25 10:07:43;;;;;;;48.83;40.33;;;1.40;99.90;;;;;;5111569;27;20464;-71
2021/01/25 10:10:12;;;;;;;57.57;40.93;;;1.40;99.90;;;;;;5101235;27;20820;-71
2021/01/25 10:12:39;;;;;;;52.03;40.47;;;1.40;99.90;;;;;;5108691;27;20465;-71
2021/01/25 10:15:07;;;;;;;49.97;39.57;;;1.40;99.90;;;;;;5106411;27;20502;-70
2021/01/25 10:17:34;;;;;;;50.90;42.47;;;1.50;99.90;;;;;;5102727;27;20460;-71
2021/01/25 10:20:01;;;;;;;51.37;40.30;;;1.40;99.90;;;;;;5099517;28;20460;-71
2021/01/25 10:22:27;;;;;;;53.83;39.20;;;1.40;99.90;;;;;;5099446;28;20462;-71
2021/01/25 10:24:54;;;;;;;55.47;38.50;;;1.40;99.90;;;;;;5097716;27;20835;-71
2021/01/25 10:27:22;;;;;;;44.77;39.90;;;1.20;99.90;;;;;;5109303;27;20467;-71
2021/01/25 10:29:48;;;;;;;47.67;37.73;;;1.30;99.90;;;;;;5106503;27;20488;-70
2021/01/25 10:32:15;;;;;;;52.27;40.37;;;1.30;99.90;;;;;;5098673;27;20939;-70
2021/01/25 10:34:42;;;;;;;50.90;40.90;;;1.30;99.90;;;;;;5100884;27;20519;-71
2021/01/25 10:37:08;;;;;;;49.20;39.43;;;1.40;99.90;;;;;;5096039;27;20966;-70
2021/01/25 10:39:37;;;;;;;55.97;40.37;;;1.40;99.90;;;;;;5101618;27;20845;-70
2021/01/25 10:42:03;;;;;;;46.67;40.27;;;1.40;99.90;;;;;;5099904;28;20470;-71
2021/01/25 10:44:31;;;;;;;46.07;39.53;;;1.50;99.90;;;;;;5097817;28;20987;-70
2021/01/25 10:46:58;;;;;;;46.73;39.10;;;1.60;99.90;;;;;;5097141;28;20454;-70
2021/01/25 10:49:25;;;;;;;43.17;38.47;;;1.60;99.90;;;;;;5101798;28;20473;-69
2021/01/25 10:51:51;;;;;;;46.57;38.43;;;1.70;99.90;;;;;;5107720;27;20919;-70
2021/01/25 10:54:22;;;;;;;47.60;40.20;;;1.80;99.90;;;;;;5104325;27;20492;-70
2021/01/25 10:56:50;;;;;;;42.70;37.57;;;1.70;99.90;;;;;;5102648;27;20456;-70
2021/01/25 10:59:17;;;;;;;42.77;38.13;;;1.40;99.90;;;;;;5105858;27;20457;-70
2021/01/25 11:01:45;;;;;;;43.97;39.50;;;1.40;99.90;;;;;;5108444;27;20457;-69
2021/01/25 11:04:11;;;;;;;41.63;37.33;;;1.10;99.90;;;;;;5100213;28;20456;-69
2021/01/25 11:06:38;;;;;;;43.53;38.90;;;1.10;99.90;;;;;;5104731;28;20445;-70
2021/01/25 11:09:05;;;;;;;45.83;39.17;;;1.00;99.90;;;;;;5095088;28;20483;-69
2021/01/25 11:11:32;;;;;;;44.23;38.90;;;1.10;99.90;;;;;;5103613;28;20489;-70
2021/01/25 11:13:59;;;;;;;52.10;40.67;;;1.30;99.90;;;;;;5097843;27;21247;-69
2021/01/25 11:16:25;;;;;;;51.13;39.53;;;1.30;99.90;;;;;;5099037;27;20466;-70
2021/01/25 11:18:52;;;;;;;47.60;39.37;;;1.20;99.90;;;;;;5094515;28;20457;-69
2021/01/25 11:21:18;;;;;;;48.13;41.33;;;1.10;99.90;;;;;;5090095;28;20460;-69
2021/01/25 11:23:47;;;;;;;49.53;39.30;;;1.30;99.90;;;;;;5100890;27;20472;-69
2021/01/25 11:26:13;;;;;;;50.07;42.37;;;1.30;99.90;;;;;;5102984;27;20463;-69
2021/01/25 11:28:40;;;;;;;51.87;41.93;;;1.50;99.90;;;;;;5099684;27;20450;-71
2021/01/25 11:31:07;;;;;;;46.10;41.07;;;1.60;99.90;;;;;;5094630;28;20454;-69
2021/01/25 11:33:33;;;;;;;48.60;41.33;;;1.70;99.90;;;;;;5099513;28;20978;-70
2021/01/25 11:36:00;;;;;;;46.80;41.73;;;2.00;99.90;;;;;;5097126;28;20479;-69
2021/01/25 11:38:27;;;;;;;46.30;41.27;;;2.00;99.90;;;;;;5106281;27;20484;-70
2021/01/25 11:40:53;;;;;;;47.00;41.77;;;2.10;99.90;;;;;;5100804;27;20485;-69
2021/01/25 11:43:19;;;;;;;45.63;40.83;;;2.40;99.90;;;;;;5093801;28;20458;-69
2021/01/25 11:45:46;;;;;;;46.63;40.80;;;2.80;99.90;;;;;;5097798;27;20542;-68
2021/01/25 11:48:12;;;;;;;50.10;42.10;;;3.10;99.90;;;;;;5098827;28;20471;-68
2021/01/25 11:50:39;;;;;;;45.77;41.10;;;3.10;99.90;;;;;;5090471;27;20470;-69
2021/01/25 11:53:06;;;;;;;43.47;39.10;;;3.20;99.90;;;;;;5095317;27;20489;-68
2021/01/25 11:55:33;;;;;;;42.43;38.20;;;3.30;99.90;;;;;;5092501;27;20531;-69
2021/01/25 11:57:59;;;;;;;44.63;39.63;;;3.60;99.90;;;;;;5103180;27;20458;-69
2021/01/25 12:00:26;;;;;;;43.70;39.20;;;3.40;99.90;;;;;;5096654;27;20495;-69
2021/01/25 12:02:52;;;;;;;42.77;38.67;;;3.20;99.90;;;;;;5100194;27;20464;-69
2021/01/25 12:05:19;;;;;;;42.07;37.80;;;3.10;99.90;;;;;;5100153;28;20457;-68
2021/01/25 12:07:46;;;;;;;47.63;38.40;;;2.80;99.90;;;;;;5096662;28;20468;-69
2021/01/25 12:10:13;;;;;;;44.40;39.93;;;2.70;99.90;;;;;;5096632;28;20462;-69
2021/01/25 12:12:39;;;;;;;41.30;37.23;;;2.80;99.90;;;;;;5098321;28;20464;-69
2021/01/25 12:15:07;;;;;;;43.10;38.67;;;3.00;99.90;;;;;;5094701;27;21003;-70
2021/01/25 12:17:34;;;;;;;44.10;39.70;;;2.60;99.90;;;;;;5097416;28;20469;-69
2021/01/25 12:20:00;;;;;;;43.83;38.60;;;2.50;99.90;;;;;;5095093;28;20514;-69
2021/01/25 12:22:27;;;;;;;43.47;39.30;;;2.50;99.90;;;;;;5093342;28;20467;-69
2021/01/25 12:24:53;;;;;;;42.67;38.37;;;2.40;99.90;;;;;;5089415;28;20458;-69
2021/01/25 12:27:20;;;;;;;44.80;40.00;;;2.50;99.90;;;;;;5102196;27;20961;-70
2021/01/25 12:29:47;;;;;;;45.07;40.23;;;2.50;99.90;;;;;;5092236;28;20492;-69
2021/01/25 12:32:13;;;;;;;45.03;40.20;;;2.30;99.90;;;;;;5090688;28;20464;-70
2021/01/25 12:34:39;;;;;;;50.60;40.93;;;2.20;99.90;;;;;;5093320;28;20492;-69
2021/01/25 12:37:06;;;;;;;45.93;40.93;;;2.10;99.90;;;;;;5103478;27;20472;-70
2021/01/25 12:39:32;;;;;;;48.37;42.50;;;2.20;99.90;;;;;;5102319;27;20463;-70